Terminal Aerodrome Forecast
Issued by NWS

Home | Current Version | Previous Version | Graphics & Text | Print | Product List | Glossary On
Versions: 1 2 3 4 5 6 7 8 9 10 11 12 13 14 15 16 17
907
FTUS42 KMHX 170532
TAFISO
TAF
KISO 170532Z 1706/1806 00000KT P6SM SCT009 OVC015
     FM170900 VRB02KT 4SM BR OVC007
     FM171500 23005KT P6SM SCT007 OVC015
     FM171900 22007KT P6SM SCT015 BKN080
      AMD LTD TO CLD VIS AND WIND=

USA.gov is the U.S. government's official web portal to all federal, state and local government web resources and services.